Terminal Aerodrome Forecast
Issued by NWS Mt. Holly, NJ

Home | Current Version | Previous Version | Text Only | Print | Product List | Glossary On
Versions: 1 2 3 4 5 6 7 8 9 10 11 12 13 14 15 16
000
FTUS41 KPHI 260540
TAFTTN
TAF
KTTN 260540Z 2606/2706 22006KT P6SM SKC
     FM261500 25007KT P6SM SCT050
     FM262000 25008KT P6SM BKN050 PROB30 2620/2624 3SM +TSRA
      OVC040CB
     FM270000 26007KT 6SM SHRA BR BKN060=

USA.gov is the U.S. government's official web portal to all federal, state and local government web resources and services.